createdAt,value
2022-07-25T00:00:11.686Z,5.74
2022-07-25T00:02:40.728Z,5.82
2022-07-25T00:05:08.633Z,5.72
2022-07-25T00:07:42.863Z,5.48
2022-07-25T00:10:10.741Z,5.64
2022-07-25T00:12:38.574Z,5.39
2022-07-25T00:15:09.059Z,5.44
2022-07-25T00:17:36.446Z,5.80
2022-07-25T00:20:06.849Z,5.85
2022-07-25T00:22:33.896Z,5.64
2022-07-25T00:25:02.342Z,5.41
2022-07-25T00:27:38.542Z,5.37
2022-07-25T00:30:07.099Z,5.34
2022-07-25T00:32:36.205Z,5.33
2022-07-25T00:35:04.115Z,5.46
2022-07-25T00:37:32.134Z,5.47
2022-07-25T00:39:59.742Z,5.91
2022-07-25T00:42:30.171Z,5.65
2022-07-25T00:44:57.384Z,5.86
2022-07-25T00:47:25.137Z,5.83
2022-07-25T00:49:52.410Z,5.72
2022-07-25T00:52:22.347Z,5.72
2022-07-25T00:54:50.522Z,5.69
2022-07-25T00:57:17.706Z,5.80
2022-07-25T00:59:47.079Z,5.48
2022-07-25T01:02:15.524Z,5.49
2022-07-25T01:04:42.524Z,5.64
2022-07-25T01:07:11.894Z,5.69
2022-07-25T01:09:41.847Z,5.48
2022-07-25T01:12:10.525Z,5.76
2022-07-25T01:14:43.045Z,5.82
2022-07-25T01:17:12.315Z,5.55
2022-07-25T01:19:46.778Z,5.69
2022-07-25T01:22:15.746Z,5.62
2022-07-25T01:24:45.689Z,5.55
2022-07-25T01:27:17.208Z,5.45
2022-07-25T01:29:44.981Z,5.53
2022-07-25T01:32:12.607Z,5.63
2022-07-25T01:34:41.612Z,5.63
2022-07-25T01:37:08.510Z,5.49
2022-07-25T01:39:41.085Z,5.96
2022-07-25T01:42:09.300Z,5.61
2022-07-25T01:44:41.160Z,5.51
2022-07-25T01:47:08.164Z,5.56
2022-07-25T01:49:36.208Z,5.38
2022-07-25T01:52:04.367Z,5.50
2022-07-25T01:54:31.471Z,5.80
2022-07-25T01:57:03.282Z,5.85
2022-07-25T01:59:30.501Z,5.86
2022-07-25T02:01:58.980Z,5.92
2022-07-25T02:04:26.066Z,5.50
2022-07-25T02:06:54.353Z,5.75
2022-07-25T02:09:21.560Z,6.18
2022-07-25T02:11:49.160Z,6.44
2022-07-25T02:14:18.009Z,6.08
2022-07-25T02:16:46.514Z,6.01
2022-07-25T02:19:13.394Z,5.96
2022-07-25T02:21:43.494Z,6.13
2022-07-25T02:24:11.300Z,6.06
2022-07-25T02:26:39.307Z,5.99
2022-07-25T02:29:07.817Z,6.29
2022-07-25T02:31:36.342Z,6.37
2022-07-25T02:34:05.356Z,6.18
2022-07-25T02:36:34.007Z,6.69
2022-07-25T02:39:00.795Z,6.49
2022-07-25T02:41:28.124Z,6.38
2022-07-25T02:43:57.943Z,6.31
2022-07-25T02:46:26.998Z,6.45
2022-07-25T02:48:55.562Z,6.65
2022-07-25T02:51:28.215Z,6.37
2022-07-25T02:53:57.744Z,6.10
2022-07-25T02:56:30.286Z,6.06
2022-07-25T02:58:59.412Z,6.27
2022-07-25T03:01:28.164Z,6.14
2022-07-25T03:03:56.801Z,6.49
2022-07-25T03:06:24.774Z,6.47
2022-07-25T03:08:53.834Z,6.02
2022-07-25T03:11:24.159Z,6.52
2022-07-25T03:13:55.274Z,6.30
2022-07-25T03:16:22.118Z,6.63
2022-07-25T03:18:50.411Z,6.59
2022-07-25T03:21:20.727Z,5.99
2022-07-25T03:24:03.657Z,6.06
2022-07-25T03:26:31.545Z,6.35
2022-07-25T03:28:58.935Z,6.35
2022-07-25T03:31:27.333Z,6.55
2022-07-25T03:33:55.712Z,6.57
2022-07-25T03:36:25.198Z,6.29
2022-07-25T03:38:52.513Z,6.78
2022-07-25T03:41:19.610Z,6.69
2022-07-25T03:43:52.367Z,7.02
2022-07-25T03:46:20.944Z,7.14
2022-07-25T03:48:50.779Z,6.69
2022-07-25T03:51:19.073Z,6.80
2022-07-25T03:53:51.538Z,7.07
2022-07-25T03:56:18.816Z,6.61
2022-07-25T03:58:47.833Z,6.43
2022-07-25T04:01:16.998Z,6.46
2022-07-25T04:03:47.322Z,6.08
2022-07-25T04:06:15.595Z,6.15
2022-07-25T04:08:42.846Z,6.43
2022-07-25T04:11:15.305Z,6.90
2022-07-25T04:13:42.264Z,7.01
2022-07-25T04:16:14.578Z,6.97
2022-07-25T04:18:50.030Z,6.91
2022-07-25T04:21:18.016Z,6.97
2022-07-25T04:23:45.843Z,7.00
2022-07-25T04:26:15.683Z,7.21
2022-07-25T04:28:42.871Z,6.95
2022-07-25T04:31:10.186Z,7.19
2022-07-25T04:33:38.552Z,6.93
2022-07-25T04:36:08.018Z,6.98
2022-07-25T04:38:35.202Z,7.54
2022-07-25T04:41:05.061Z,7.42
2022-07-25T04:43:33.318Z,7.16
2022-07-25T04:46:00.598Z,7.14
2022-07-25T04:48:31.729Z,6.79
2022-07-25T04:50:59.260Z,6.82
2022-07-25T04:53:26.205Z,7.31
2022-07-25T04:55:54.838Z,7.21
2022-07-25T04:58:22.999Z,6.84
2022-07-25T05:00:54.065Z,6.78
2022-07-25T05:03:21.929Z,6.84
2022-07-25T05:05:50.430Z,7.25
2022-07-25T05:08:17.446Z,7.49
2022-07-25T05:10:49.002Z,7.65
2022-07-25T05:13:15.970Z,7.70
2022-07-25T05:15:43.637Z,7.40
2022-07-25T05:18:12.014Z,7.13
2022-07-25T05:20:39.836Z,7.40
2022-07-25T05:23:07.876Z,7.36
2022-07-25T05:25:35.392Z,7.33
2022-07-25T05:28:04.578Z,6.81
2022-07-25T05:30:35.294Z,6.92
2022-07-25T05:33:05.098Z,6.78
2022-07-25T05:35:33.622Z,6.46
2022-07-25T05:38:04.275Z,6.46
2022-07-25T05:40:31.175Z,6.26
2022-07-25T05:43:03.020Z,6.55
2022-07-25T05:45:37.938Z,6.09
2022-07-25T05:48:06.783Z,5.99
2022-07-25T05:50:36.983Z,6.01
2022-07-25T05:53:05.265Z,6.06
2022-07-25T05:55:33.400Z,6.19
2022-07-25T05:58:04.819Z,5.66
2022-07-25T06:00:31.603Z,5.63
2022-07-25T06:03:00.279Z,5.76
2022-07-25T06:05:27.873Z,5.92
2022-07-25T06:07:57.362Z,5.82
2022-07-25T06:10:24.461Z,6.18
2022-07-25T06:12:51.818Z,6.18
2022-07-25T06:15:22.825Z,6.10
2022-07-25T06:17:54.654Z,6.53
2022-07-25T06:20:22.548Z,6.53
2022-07-25T06:22:49.814Z,6.76
2022-07-25T06:25:18.892Z,6.71
2022-07-25T06:27:46.917Z,6.74
2022-07-25T06:30:19.620Z,7.09
2022-07-25T06:32:47.004Z,6.86
2022-07-25T06:35:14.175Z,6.84
2022-07-25T06:37:49.480Z,6.94
2022-07-25T06:40:18.034Z,6.97
2022-07-25T06:42:46.795Z,6.73
2022-07-25T06:45:15.955Z,6.91
2022-07-25T06:47:43.958Z,6.70
2022-07-25T06:50:13.210Z,6.67
2022-07-25T06:52:40.574Z,6.20
2022-07-25T06:55:10.076Z,6.43
2022-07-25T06:57:38.561Z,6.66
2022-07-25T07:00:10.319Z,7.03
2022-07-25T07:02:48.766Z,6.84
2022-07-25T07:05:15.641Z,6.58
2022-07-25T07:07:47.390Z,6.69
2022-07-25T07:10:15.000Z,6.96
2022-07-25T07:12:43.629Z,6.89
2022-07-25T07:15:11.002Z,6.89
2022-07-25T07:17:38.383Z,6.78
2022-07-25T07:20:08.162Z,6.71
2022-07-25T07:22:44.228Z,6.76
2022-07-25T07:25:13.712Z,6.91
2022-07-25T07:27:41.607Z,6.64
2022-07-25T07:30:12.717Z,7.00
2022-07-25T07:32:41.634Z,7.23
2022-07-25T07:35:09.876Z,7.09
2022-07-25T07:37:42.986Z,7.34
2022-07-25T07:42:49.792Z,7.17
2022-07-25T07:45:21.154Z,7.13
2022-07-25T07:47:49.645Z,6.97
2022-07-25T07:50:18.671Z,7.07
2022-07-25T07:52:47.378Z,7.26
2022-07-25T07:55:14.771Z,6.94
2022-07-25T07:57:41.994Z,6.65
2022-07-25T08:00:13.511Z,7.39
2022-07-25T08:02:48.695Z,7.04
2022-07-25T08:05:20.515Z,7.27
2022-07-25T08:07:47.740Z,7.19
2022-07-25T08:10:14.733Z,7.10
2022-07-25T08:12:42.280Z,7.03
2022-07-25T08:15:10.677Z,7.28
2022-07-25T08:17:37.462Z,7.05
2022-07-25T08:20:27.933Z,6.86
2022-07-25T08:22:57.262Z,6.84
2022-07-25T08:25:24.561Z,6.71
2022-07-25T08:27:51.441Z,7.15
2022-07-25T08:30:19.409Z,6.69
2022-07-25T08:32:47.611Z,6.55
2022-07-25T08:35:16.425Z,6.62
2022-07-25T08:37:44.341Z,6.79
2022-07-25T08:40:13.474Z,7.08
2022-07-25T08:42:41.049Z,6.88
2022-07-25T08:45:11.161Z,6.95
2022-07-25T08:47:39.627Z,6.99
2022-07-25T08:50:09.153Z,6.89
2022-07-25T08:52:38.556Z,6.98
2022-07-25T08:55:10.498Z,7.07
2022-07-25T08:57:38.241Z,7.27
2022-07-25T09:00:07.207Z,6.99
2022-07-25T09:02:35.642Z,6.87
2022-07-25T09:05:04.636Z,6.58
2022-07-25T09:07:34.702Z,6.84
2022-07-25T09:10:18.045Z,6.79
2022-07-25T09:12:53.690Z,6.57
2022-07-25T09:15:24.967Z,6.49
2022-07-25T09:17:53.591Z,6.22
2022-07-25T09:20:20.900Z,6.32
2022-07-25T09:22:48.135Z,6.31
2022-07-25T09:25:36.701Z,6.39
2022-07-25T09:28:19.307Z,6.44
2022-07-25T09:30:57.750Z,6.67
2022-07-25T09:33:26.409Z,6.60
2022-07-25T09:35:55.006Z,6.29
2022-07-25T09:38:23.479Z,6.31
2022-07-25T09:40:56.529Z,6.41
2022-07-25T09:43:24.432Z,6.82
2022-07-25T09:45:52.985Z,7.08
2022-07-25T09:48:20.532Z,6.95
2022-07-25T09:50:48.004Z,6.34
2022-07-25T09:53:19.084Z,6.25
2022-07-25T09:55:46.054Z,6.23
2022-07-25T09:58:17.578Z,6.71
2022-07-25T10:00:46.587Z,6.87
2022-07-25T10:03:20.430Z,6.28
2022-07-25T10:06:01.084Z,6.12
2022-07-25T10:08:37.496Z,6.32
2022-07-25T10:11:04.837Z,5.90
2022-07-25T10:13:35.847Z,6.44
2022-07-25T10:16:03.072Z,6.54
2022-07-25T10:18:32.025Z,6.80
2022-07-25T10:21:24.843Z,6.66
2022-07-25T10:24:06.782Z,6.59
2022-07-25T10:26:36.412Z,6.57
2022-07-25T10:29:09.257Z,6.60
2022-07-25T10:31:38.571Z,6.37
2022-07-25T10:34:10.296Z,6.50
2022-07-25T10:36:43.161Z,6.71
2022-07-25T10:41:40.124Z,6.84
2022-07-25T10:44:15.717Z,6.89
2022-07-25T10:46:43.882Z,6.84
2022-07-25T10:49:19.133Z,6.95
2022-07-25T10:51:54.982Z,6.93
2022-07-25T10:54:22.923Z,6.80
2022-07-25T10:56:55.947Z,7.09
2022-07-25T10:59:29.099Z,7.44
2022-07-25T11:01:56.535Z,7.23
2022-07-25T11:04:24.390Z,6.87
2022-07-25T11:06:52.591Z,7.06
2022-07-25T11:09:26.550Z,7.07
2022-07-25T11:11:56.537Z,7.31
2022-07-25T11:14:24.971Z,6.81
2022-07-25T11:16:59.646Z,6.63
2022-07-25T11:19:28.797Z,6.75
2022-07-25T11:21:58.430Z,6.44
2022-07-25T11:24:40.797Z,6.29
2022-07-25T11:27:12.430Z,5.94
2022-07-25T11:29:40.529Z,6.50
2022-07-25T11:32:12.573Z,7.15
2022-07-25T11:34:42.523Z,6.69
2022-07-25T11:37:13.927Z,7.08
2022-07-25T11:39:43.517Z,6.86
2022-07-25T11:42:20.671Z,6.95
2022-07-25T11:44:48.984Z,7.07
2022-07-25T11:47:32.273Z,7.13
2022-07-25T11:52:33.831Z,6.96
2022-07-25T11:55:02.481Z,6.87
2022-07-25T11:57:32.995Z,6.51
2022-07-25T12:00:01.259Z,6.54
2022-07-25T12:02:36.963Z,6.74
2022-07-25T12:05:06.574Z,6.66
2022-07-25T12:07:42.630Z,6.48
2022-07-25T12:10:14.389Z,6.85
2022-07-25T12:12:48.805Z,6.93
2022-07-25T12:15:19.039Z,6.38
2022-07-25T12:17:49.344Z,6.70
2022-07-25T12:20:18.884Z,6.48
2022-07-25T12:22:46.199Z,6.40
2022-07-25T12:25:13.656Z,6.86
2022-07-25T12:27:41.836Z,6.76
2022-07-25T12:30:10.915Z,6.36
2022-07-25T12:32:39.202Z,6.91
2022-07-25T12:35:09.571Z,6.53
2022-07-25T12:37:41.278Z,6.54
2022-07-25T12:40:11.485Z,6.18
2022-07-25T12:42:39.435Z,6.43
2022-07-25T12:45:07.324Z,6.42
2022-07-25T12:47:36.018Z,6.20
2022-07-25T12:50:06.070Z,5.91
2022-07-25T12:52:35.643Z,6.18
2022-07-25T12:55:02.553Z,6.26
2022-07-25T12:57:29.532Z,6.09
2022-07-25T12:59:58.924Z,6.44
2022-07-25T13:02:27.450Z,6.04
2022-07-25T13:04:56.391Z,6.01
2022-07-25T13:07:24.784Z,6.15
2022-07-25T13:09:55.703Z,6.16
2022-07-25T13:12:22.928Z,6.28
2022-07-25T13:14:53.897Z,6.63
2022-07-25T13:17:26.498Z,6.46
2022-07-25T13:19:54.351Z,6.30
2022-07-25T13:22:21.233Z,6.10
2022-07-25T13:24:49.261Z,6.27
2022-07-25T13:27:18.093Z,6.30
2022-07-25T13:29:45.386Z,6.67
2022-07-25T13:32:14.397Z,6.36
2022-07-25T13:34:43.617Z,6.61
2022-07-25T13:37:11.271Z,6.62
2022-07-25T13:39:38.984Z,6.52
2022-07-25T13:42:07.092Z,6.25
2022-07-25T13:44:38.086Z,6.32
2022-07-25T13:47:05.451Z,6.16
2022-07-25T13:49:36.717Z,6.10
2022-07-25T13:52:04.014Z,6.18
2022-07-25T13:54:33.375Z,6.57
2022-07-25T13:57:03.322Z,6.44
2022-07-25T13:59:31.974Z,6.31
2022-07-25T14:02:00.726Z,6.48
2022-07-25T14:04:30.972Z,6.34
2022-07-25T14:07:01.315Z,6.14
2022-07-25T14:09:28.458Z,6.08
2022-07-25T14:11:55.396Z,6.34
2022-07-25T14:14:22.938Z,6.25
2022-07-25T14:16:52.659Z,6.39
2022-07-25T14:19:22.359Z,6.54
2022-07-25T14:21:49.615Z,6.32
2022-07-25T14:24:16.426Z,5.98
2022-07-25T14:26:44.432Z,6.10
2022-07-25T14:29:12.310Z,5.76
2022-07-25T14:31:41.040Z,5.92
2022-07-25T14:34:08.293Z,5.81
2022-07-25T14:36:37.122Z,5.96
2022-07-25T14:39:05.758Z,5.76
2022-07-25T14:41:35.983Z,5.89
2022-07-25T14:44:05.744Z,5.69
2022-07-25T14:46:32.941Z,5.83
2022-07-25T14:49:00.221Z,6.03
2022-07-25T14:51:30.919Z,6.16
2022-07-25T14:53:59.428Z,6.10
2022-07-25T14:56:31.814Z,6.12
2022-07-25T14:58:59.184Z,5.88
2022-07-25T15:01:28.603Z,5.89
2022-07-25T15:03:58.293Z,5.88
2022-07-25T15:06:29.183Z,5.90
2022-07-25T15:08:57.323Z,5.75
2022-07-25T15:11:27.100Z,5.73
2022-07-25T15:13:54.185Z,5.65
2022-07-25T15:16:22.723Z,5.56
2022-07-25T15:19:15.303Z,5.51
2022-07-25T15:21:41.882Z,5.57
2022-07-25T15:24:08.834Z,5.44
2022-07-25T15:26:41.206Z,5.35
2022-07-25T15:29:10.814Z,5.59
2022-07-25T15:31:38.723Z,5.53
2022-07-25T15:34:05.937Z,5.70
2022-07-25T15:36:32.742Z,5.45
2022-07-25T15:38:59.796Z,5.48
2022-07-25T15:41:28.087Z,5.62
2022-07-25T15:43:57.812Z,5.40
2022-07-25T15:46:24.658Z,5.67
2022-07-25T15:48:56.087Z,5.42
2022-07-25T15:51:22.961Z,5.27
2022-07-25T15:53:52.571Z,5.37
2022-07-25T15:56:19.410Z,5.54
2022-07-25T15:58:48.692Z,5.59
2022-07-25T16:01:18.964Z,5.77
2022-07-25T16:03:48.516Z,5.71
2022-07-25T16:06:18.756Z,6.09
2022-07-25T16:08:50.919Z,5.39
2022-07-25T16:11:18.155Z,5.24
2022-07-25T16:13:45.536Z,5.00
2022-07-25T16:16:12.774Z,5.02
2022-07-25T16:18:42.378Z,5.12
2022-07-25T16:21:09.258Z,5.22
2022-07-25T16:23:39.689Z,5.33
2022-07-25T16:26:08.613Z,5.42
2022-07-25T16:28:36.996Z,5.47
2022-07-25T16:31:05.192Z,4.85
2022-07-25T16:33:32.198Z,4.95
2022-07-25T16:36:01.971Z,4.86
2022-07-25T16:38:30.732Z,5.09
2022-07-25T16:40:57.747Z,4.72
2022-07-25T16:43:26.532Z,4.89
2022-07-25T16:45:55.014Z,5.09
2022-07-25T16:48:21.914Z,5.28
2022-07-25T16:50:50.495Z,4.91
2022-07-25T16:53:18.883Z,4.90
2022-07-25T16:55:45.873Z,5.15
2022-07-25T16:58:12.760Z,5.44
2022-07-25T17:00:41.285Z,5.33
2022-07-25T17:03:08.408Z,5.19
2022-07-25T17:05:38.212Z,5.12
2022-07-25T17:08:06.282Z,5.08
2022-07-25T17:10:40.632Z,5.38
2022-07-25T17:13:07.585Z,5.41
2022-07-25T17:15:34.664Z,5.35
2022-07-25T17:18:02.795Z,5.46
2022-07-25T17:20:31.991Z,5.81
2022-07-25T17:22:58.955Z,5.82
2022-07-25T17:25:25.969Z,5.51
2022-07-25T17:27:56.415Z,5.60
2022-07-25T17:30:24.076Z,6.20
2022-07-25T17:32:51.531Z,6.14
2022-07-25T17:35:20.853Z,5.82
2022-07-25T17:37:47.926Z,6.01
2022-07-25T17:40:14.921Z,6.07
2022-07-25T17:42:45.273Z,6.14
2022-07-25T17:45:15.117Z,5.80
2022-07-25T17:47:46.165Z,5.94
2022-07-25T17:50:14.099Z,6.29
2022-07-25T17:52:42.526Z,6.08
2022-07-25T17:55:10.973Z,6.37
2022-07-25T17:57:40.709Z,6.31
2022-07-25T18:00:10.346Z,6.51
2022-07-25T18:02:38.865Z,6.27
2022-07-25T18:05:07.957Z,6.31
2022-07-25T18:07:35.028Z,6.17
2022-07-25T18:10:04.895Z,6.16
2022-07-25T18:12:32.349Z,6.55
2022-07-25T18:15:01.385Z,6.77
2022-07-25T18:17:39.731Z,6.75
2022-07-25T18:20:21.843Z,6.88
2022-07-25T18:22:50.382Z,6.59
2022-07-25T18:25:19.382Z,6.78
2022-07-25T18:27:47.110Z,7.08
2022-07-25T18:30:14.998Z,7.61
2022-07-25T18:32:41.784Z,8.15
2022-07-25T18:35:10.558Z,7.61
2022-07-25T18:37:38.906Z,7.21
2022-07-25T18:40:07.314Z,7.17
2022-07-25T18:42:34.960Z,7.34
2022-07-25T18:45:04.363Z,7.15
2022-07-25T18:47:33.643Z,7.19
2022-07-25T18:50:04.907Z,7.18
2022-07-25T18:52:31.877Z,7.56
2022-07-25T18:55:00.448Z,7.53
2022-07-25T18:57:30.684Z,7.62
2022-07-25T19:00:02.750Z,7.37
2022-07-25T19:02:30.945Z,7.47
2022-07-25T19:04:57.946Z,6.85
2022-07-25T19:07:26.313Z,6.73
2022-07-25T19:09:53.875Z,6.82
2022-07-25T19:12:24.677Z,6.78
2022-07-25T19:14:52.573Z,7.03
2022-07-25T19:17:22.490Z,7.11
2022-07-25T19:19:49.767Z,7.08
2022-07-25T19:22:17.356Z,6.95
2022-07-25T19:24:45.758Z,6.84
2022-07-25T19:27:20.088Z,6.86
2022-07-25T19:29:48.402Z,6.99
2022-07-25T19:32:18.073Z,6.97
2022-07-25T19:34:47.682Z,6.75
2022-07-25T19:37:16.657Z,6.67
2022-07-25T19:39:46.204Z,6.62
2022-07-25T19:42:13.221Z,6.84
2022-07-25T19:44:40.160Z,6.97
2022-07-25T19:47:11.607Z,7.19
2022-07-25T19:49:38.998Z,7.09
2022-07-25T19:52:08.953Z,7.09
2022-07-25T19:54:35.900Z,6.79
2022-07-25T19:57:05.286Z,7.18
2022-07-25T19:59:32.600Z,7.04
2022-07-25T20:01:59.756Z,6.83
2022-07-25T20:04:29.633Z,6.86
2022-07-25T20:06:58.493Z,6.73
2022-07-25T20:09:28.986Z,7.08
2022-07-25T20:12:00.538Z,6.98
2022-07-25T20:14:29.698Z,6.97
2022-07-25T20:16:57.463Z,7.17
2022-07-25T20:19:24.888Z,7.29
2022-07-25T20:21:53.358Z,7.32
2022-07-25T20:24:22.071Z,7.53
2022-07-25T20:26:49.224Z,7.23
2022-07-25T20:29:18.113Z,7.04
2022-07-25T20:31:45.567Z,6.97
2022-07-25T20:34:13.503Z,7.27
2022-07-25T20:36:41.811Z,6.97
2022-07-25T20:39:11.305Z,7.03
2022-07-25T20:41:40.927Z,7.02
2022-07-25T20:44:08.717Z,7.31
2022-07-25T20:46:37.699Z,7.26
2022-07-25T20:49:07.487Z,7.26
2022-07-25T20:51:36.714Z,6.80
2022-07-25T20:54:04.116Z,6.72
2022-07-25T20:56:33.547Z,6.37
2022-07-25T20:59:00.422Z,6.41
2022-07-25T21:01:32.485Z,6.27
2022-07-25T21:04:00.235Z,6.27
2022-07-25T21:06:29.079Z,6.27
2022-07-25T21:08:58.119Z,6.55
2022-07-25T21:11:26.578Z,6.47
2022-07-25T21:13:54.913Z,6.40
2022-07-25T21:16:22.327Z,6.53
2022-07-25T21:18:49.380Z,6.53
2022-07-25T21:21:17.408Z,6.66
2022-07-25T21:23:44.445Z,6.34
2022-07-25T21:26:12.600Z,6.42
2022-07-25T21:28:44.600Z,6.64
2022-07-25T21:31:13.174Z,7.07
2022-07-25T21:33:41.822Z,6.92
2022-07-25T21:36:09.635Z,7.15
2022-07-25T21:38:36.805Z,6.75
2022-07-25T21:41:07.659Z,6.62
2022-07-25T21:43:37.928Z,6.16
2022-07-25T21:46:05.684Z,6.32
2022-07-25T21:48:35.616Z,5.99
2022-07-25T21:51:03.657Z,6.30
2022-07-25T21:53:36.338Z,5.88
2022-07-25T21:56:03.229Z,5.44
2022-07-25T21:58:31.262Z,5.32
2022-07-25T22:00:58.682Z,4.87
2022-07-25T22:03:26.038Z,4.64
2022-07-25T22:05:54.922Z,4.64
2022-07-25T22:08:21.753Z,4.52
2022-07-25T22:10:51.840Z,4.24
2022-07-25T22:13:21.000Z,3.43
2022-07-25T22:15:51.231Z,3.13
2022-07-25T22:18:18.922Z,2.65
2022-07-25T22:20:47.907Z,2.58
2022-07-25T22:23:16.131Z,1.88
2022-07-25T22:25:43.371Z,1.47
2022-07-25T22:28:14.343Z,1.18
2022-07-25T22:30:42.739Z,1.07
2022-07-25T22:33:09.778Z,1.01
2022-07-25T22:35:38.772Z,1.00
2022-07-25T22:38:05.727Z,1.05
2022-07-25T22:40:36.675Z,1.06
2022-07-25T22:43:05.159Z,1.05
2022-07-25T22:45:34.215Z,0.90
2022-07-25T22:48:05.435Z,0.89
2022-07-25T22:50:37.322Z,0.92
2022-07-25T22:53:04.385Z,1.15
2022-07-25T22:55:31.622Z,1.07
2022-07-25T22:58:00.287Z,1.07
2022-07-25T23:00:27.378Z,1.29
2022-07-25T23:02:55.230Z,1.23
2022-07-25T23:05:22.277Z,1.20
2022-07-25T23:07:51.061Z,1.01
2022-07-25T23:10:17.872Z,0.91
2022-07-25T23:12:45.383Z,1.12
2022-07-25T23:15:14.190Z,0.94
2022-07-25T23:17:45.268Z,0.89
2022-07-25T23:20:12.756Z,0.76
2022-07-25T23:22:41.332Z,0.87
2022-07-25T23:25:10.783Z,0.84
2022-07-25T23:27:40.398Z,0.85
2022-07-25T23:30:09.021Z,1.21
2022-07-25T23:32:38.416Z,1.08
2022-07-25T23:35:06.878Z,1.11
2022-07-25T23:37:34.020Z,1.08
2022-07-25T23:40:00.835Z,0.87
2022-07-25T23:42:30.846Z,0.84
2022-07-25T23:45:01.938Z,0.83
2022-07-25T23:47:39.309Z,1.00
2022-07-25T23:50:10.198Z,0.95
2022-07-25T23:52:44.692Z,1.15
2022-07-25T23:55:11.588Z,1.04
2022-07-25T23:57:39.669Z,1.16
